sensor_id;sensor_type;location;lat;lon;timestamp;pressure;altitude;pressure_sealevel;temperature;humidity
78892;BME280;68368;51.728;5.248;2023-04-24T00:01:19;99938.20;;;8.75;87.79
78892;BME280;68368;51.728;5.248;2023-04-24T00:03:23;99941.40;;;8.75;87.93
78892;BME280;68368;51.728;5.248;2023-04-24T00:05:26;99939.57;;;8.78;87.75
78892;BME280;68368;51.728;5.248;2023-04-24T00:07:30;99939.55;;;8.80;87.78
78892;BME280;68368;51.728;5.248;2023-04-24T00:09:35;99937.93;;;8.81;87.83
78892;BME280;68368;51.728;5.248;2023-04-24T00:11:38;99943.06;;;8.82;87.75
78892;BME280;68368;51.728;5.248;2023-04-24T00:13:42;99941.96;;;8.83;87.87
78892;BME280;68368;51.728;5.248;2023-04-24T00:15:47;99951.86;;;8.84;87.95
78892;BME280;68368;51.728;5.248;2023-04-24T00:17:50;99948.17;;;8.82;88.01
78892;BME280;68368;51.728;5.248;2023-04-24T00:19:53;99949.27;;;8.81;87.91
78892;BME280;68368;51.728;5.248;2023-04-24T00:21:56;99939.36;;;8.80;88.30
78892;BME280;68368;51.728;5.248;2023-04-24T00:24:00;99942.55;;;8.79;88.12
78892;BME280;68368;51.728;5.248;2023-04-24T00:26:03;99944.66;;;8.80;87.81
78892;BME280;68368;51.728;5.248;2023-04-24T00:28:06;99947.33;;;8.80;87.92
78892;BME280;68368;51.728;5.248;2023-04-24T00:30:10;99952.62;;;8.81;88.09
78892;BME280;68368;51.728;5.248;2023-04-24T00:32:14;99949.77;;;8.82;88.09
78892;BME280;68368;51.728;5.248;2023-04-24T00:34:18;99954.20;;;8.82;87.89
78892;BME280;68368;51.728;5.248;2023-04-24T00:36:22;99947.80;;;8.83;88.03
78892;BME280;68368;51.728;5.248;2023-04-24T00:38:26;99954.55;;;8.82;87.86
78892;BME280;68368;51.728;5.248;2023-04-24T00:40:29;99948.39;;;8.81;87.93
78892;BME280;68368;51.728;5.248;2023-04-24T00:42:33;99946.60;;;8.82;87.81
78892;BME280;68368;51.728;5.248;2023-04-24T00:44:36;99951.55;;;8.82;87.59
78892;BME280;68368;51.728;5.248;2023-04-24T00:46:40;99948.71;;;8.82;87.54
78892;BME280;68368;51.728;5.248;2023-04-24T00:48:47;99943.95;;;8.82;87.75
78892;BME280;68368;51.728;5.248;2023-04-24T00:50:50;99943.59;;;8.82;87.71
78892;BME280;68368;51.728;5.248;2023-04-24T00:52:54;99948.54;;;8.81;87.59
78892;BME280;68368;51.728;5.248;2023-04-24T00:54:57;99949.44;;;8.81;87.60
78892;BME280;68368;51.728;5.248;2023-04-24T00:57:01;99945.55;;;8.81;87.55
78892;BME280;68368;51.728;5.248;2023-04-24T00:59:05;99946.96;;;8.81;87.50
78892;BME280;68368;51.728;5.248;2023-04-24T01:01:10;99949.25;;;8.82;87.55
78892;BME280;68368;51.728;5.248;2023-04-24T01:03:14;99949.06;;;8.82;87.42
78892;BME280;68368;51.728;5.248;2023-04-24T01:05:18;99949.58;;;8.83;87.38
78892;BME280;68368;51.728;5.248;2023-04-24T01:07:22;99954.88;;;8.83;87.40
78892;BME280;68368;51.728;5.248;2023-04-24T01:09:26;99956.80;;;8.84;87.31
78892;BME280;68368;51.728;5.248;2023-04-24T01:11:31;99954.86;;;8.85;87.55
78892;BME280;68368;51.728;5.248;2023-04-24T01:13:35;99950.98;;;8.84;87.43
78892;BME280;68368;51.728;5.248;2023-04-24T01:15:39;99950.27;;;8.84;87.65
78892;BME280;68368;51.728;5.248;2023-04-24T01:17:44;99955.38;;;8.86;87.33
78892;BME280;68368;51.728;5.248;2023-04-24T01:19:47;99955.70;;;8.87;87.48
78892;BME280;68368;51.728;5.248;2023-04-24T01:21:53;99954.63;;;8.88;87.32
78892;BME280;68368;51.728;5.248;2023-04-24T01:23:59;99953.38;;;8.88;87.38
78892;BME280;68368;51.728;5.248;2023-04-24T01:26:02;99954.09;;;8.89;87.31
78892;BME280;68368;51.728;5.248;2023-04-24T01:28:06;99958.52;;;8.88;87.33
78892;BME280;68368;51.728;5.248;2023-04-24T01:30:11;99955.88;;;8.87;87.33
78892;BME280;68368;51.728;5.248;2023-04-24T01:32:15;99958.02;;;8.87;87.43
78892;BME280;68368;51.728;5.248;2023-04-24T01:34:18;99956.92;;;8.87;87.30
78892;BME280;68368;51.728;5.248;2023-04-24T01:36:22;99962.25;;;8.88;87.33
78892;BME280;68368;51.728;5.248;2023-04-24T01:38:27;99958.16;;;8.89;87.20
78892;BME280;68368;51.728;5.248;2023-04-24T01:40:32;99955.85;;;8.89;87.19
78892;BME280;68368;51.728;5.248;2023-04-24T01:42:36;99955.30;;;8.90;87.33
78892;BME280;68368;51.728;5.248;2023-04-24T01:44:43;99955.30;;;8.90;87.24
78892;BME280;68368;51.728;5.248;2023-04-24T01:46:48;99956.19;;;8.90;87.22
78892;BME280;68368;51.728;5.248;2023-04-24T01:48:52;99953.35;;;8.90;87.26
78892;BME280;68368;51.728;5.248;2023-04-24T01:50:57;99957.59;;;8.91;87.08
78892;BME280;68368;51.728;5.248;2023-04-24T01:53:00;99947.66;;;8.92;87.07
78892;BME280;68368;51.728;5.248;2023-04-24T01:55:05;99952.07;;;8.92;87.06
78892;BME280;68368;51.728;5.248;2023-04-24T01:57:09;99954.01;;;8.92;87.10
78892;BME280;68368;51.728;5.248;2023-04-24T01:59:13;99951.01;;;8.92;87.17
78892;BME280;68368;51.728;5.248;2023-04-24T02:01:21;99952.59;;;8.92;87.23
78892;BME280;68368;51.728;5.248;2023-04-24T02:03:26;99953.69;;;8.91;87.10
78892;BME280;68368;51.728;5.248;2023-04-24T02:05:29;99951.05;;;8.91;87.23
78892;BME280;68368;51.728;5.248;2023-04-24T02:07:32;99953.31;;;8.92;87.16
78892;BME280;68368;51.728;5.248;2023-04-24T02:09:36;99954.89;;;8.93;87.30
78892;BME280;68368;51.728;5.248;2023-04-24T02:11:42;99957.36;;;8.94;87.33
78892;BME280;68368;51.728;5.248;2023-04-24T02:13:45;99955.78;;;8.93;87.25
78892;BME280;68368;51.728;5.248;2023-04-24T02:15:48;99958.27;;;8.92;87.51
78892;BME280;68368;51.728;5.248;2023-04-24T02:17:52;99954.95;;;8.90;87.48
78892;BME280;68368;51.728;5.248;2023-04-24T02:19:57;99956.04;;;8.88;87.66
78892;BME280;68368;51.728;5.248;2023-04-24T02:22:01;99965.11;;;8.85;87.80
78892;BME280;68368;51.728;5.248;2023-04-24T02:24:07;99961.95;;;8.84;87.57
78892;BME280;68368;51.728;5.248;2023-04-24T02:26:12;99961.81;;;8.82;87.63
78892;BME280;68368;51.728;5.248;2023-04-24T02:28:15;99968.91;;;8.80;87.45
78892;BME280;68368;51.728;5.248;2023-04-24T02:30:19;99960.28;;;8.79;87.57
78892;BME280;68368;51.728;5.248;2023-04-24T02:32:22;99964.19;;;8.78;87.35
78892;BME280;68368;51.728;5.248;2023-04-24T02:34:28;99961.02;;;8.77;87.50
78892;BME280;68368;51.728;5.248;2023-04-24T02:36:34;99958.55;;;8.75;87.53
78892;BME280;68368;51.728;5.248;2023-04-24T02:38:38;99962.33;;;8.73;87.49
78892;BME280;68368;51.728;5.248;2023-04-24T02:40:43;99956.88;;;8.70;87.41
78892;BME280;68368;51.728;5.248;2023-04-24T02:42:49;99958.13;;;8.69;87.54
78892;BME280;68368;51.728;5.248;2023-04-24T02:44:53;99961.33;;;8.68;87.48
78892;BME280;68368;51.728;5.248;2023-04-24T02:46:57;99954.81;;;8.67;87.31
78892;BME280;68368;51.728;5.248;2023-04-24T02:49:02;99958.87;;;8.68;87.38
78892;BME280;68368;51.728;5.248;2023-04-24T02:51:05;99956.05;;;8.67;87.32
78892;BME280;68368;51.728;5.248;2023-04-24T02:53:08;99957.13;;;8.66;87.44
78892;BME280;68368;51.728;5.248;2023-04-24T02:55:14;99953.08;;;8.64;87.45
78892;BME280;68368;51.728;5.248;2023-04-24T02:57:20;99952.92;;;8.63;87.58
78892;BME280;68368;51.728;5.248;2023-04-24T02:59:23;99953.48;;;8.62;87.44
78892;BME280;68368;51.728;5.248;2023-04-24T03:01:27;99954.94;;;8.59;87.34
78892;BME280;68368;51.728;5.248;2023-04-24T03:03:30;99945.23;;;8.58;87.16
78892;BME280;68368;51.728;5.248;2023-04-24T03:05:33;99945.04;;;8.58;87.37
78892;BME280;68368;51.728;5.248;2023-04-24T03:07:37;99945.75;;;8.57;87.09
78892;BME280;68368;51.728;5.248;2023-04-24T03:09:40;99945.80;;;8.55;86.97
78892;BME280;68368;51.728;5.248;2023-04-24T03:11:44;99944.77;;;8.53;87.27
78892;BME280;68368;51.728;5.248;2023-04-24T03:13:50;99946.03;;;8.52;87.19
78892;BME280;68368;51.728;5.248;2023-04-24T03:15:54;99944.98;;;8.51;87.26
78892;BME280;68368;51.728;5.248;2023-04-24T03:17:57;99942.52;;;8.49;86.96
78892;BME280;68368;51.728;5.248;2023-04-24T03:20:04;99942.73;;;8.48;87.07
78892;BME280;68368;51.728;5.248;2023-04-24T03:22:08;99943.10;;;8.47;87.20
78892;BME280;68368;51.728;5.248;2023-04-24T03:24:13;99943.12;;;8.46;87.02
78892;BME280;68368;51.728;5.248;2023-04-24T03:26:16;99940.30;;;8.45;86.86
78892;BME280;68368;51.728;5.248;2023-04-24T03:28:19;99939.12;;;8.42;86.93
78892;BME280;68368;51.728;5.248;2023-04-24T03:30:22;99931.20;;;8.39;87.02
78892;BME280;68368;51.728;5.248;2023-04-24T03:32:26;99934.57;;;8.35;86.89
78892;BME280;68368;51.728;5.248;2023-04-24T03:34:29;99932.66;;;8.33;87.06
78892;BME280;68368;51.728;5.248;2023-04-24T03:36:32;99930.05;;;8.31;86.98
78892;BME280;68368;51.728;5.248;2023-04-24T03:38:35;99932.20;;;8.29;87.19
78892;BME280;68368;51.728;5.248;2023-04-24T03:40:38;99931.53;;;8.27;87.40
78892;BME280;68368;51.728;5.248;2023-04-24T03:42:41;99933.31;;;8.26;86.93
78892;BME280;68368;51.728;5.248;2023-04-24T03:44:45;99933.15;;;8.25;87.18
78892;BME280;68368;51.728;5.248;2023-04-24T03:46:48;99930.88;;;8.24;87.29
78892;BME280;68368;51.728;5.248;2023-04-24T03:48:51;99925.23;;;8.22;87.31
78892;BME280;68368;51.728;5.248;2023-04-24T03:50:54;99924.73;;;8.20;87.32
78892;BME280;68368;51.728;5.248;2023-04-24T03:52:57;99925.65;;;8.19;87.35
78892;BME280;68368;51.728;5.248;2023-04-24T03:55:00;99924.42;;;8.18;87.48
78892;BME280;68368;51.728;5.248;2023-04-24T03:57:04;99931.33;;;8.16;87.37
78892;BME280;68368;51.728;5.248;2023-04-24T03:59:07;99929.55;;;8.16;87.19
78892;BME280;68368;51.728;5.248;2023-04-24T04:01:11;99927.79;;;8.17;87.62
78892;BME280;68368;51.728;5.248;2023-04-24T04:03:14;99929.02;;;8.17;87.61
78892;BME280;68368;51.728;5.248;2023-04-24T04:05:18;99935.20;;;8.18;87.58
78892;BME280;68368;51.728;5.248;2023-04-24T04:07:21;99935.73;;;8.18;87.42
78892;BME280;68368;51.728;5.248;2023-04-24T04:09:26;99939.45;;;8.18;87.68
78892;BME280;68368;51.728;5.248;2023-04-24T04:11:31;99940.88;;;8.16;87.97
78892;BME280;68368;51.728;5.248;2023-04-24T04:13:35;99941.80;;;8.15;87.84
78892;BME280;68368;51.728;5.248;2023-04-24T04:15:39;99940.91;;;8.14;87.79
78892;BME280;68368;51.728;5.248;2023-04-24T04:17:42;99942.15;;;8.14;88.01
78892;BME280;68368;51.728;5.248;2023-04-24T04:19:45;99937.20;;;8.15;88.17
78892;BME280;68368;51.728;5.248;2023-04-24T04:21:49;99947.80;;;8.15;88.10
78892;BME280;68368;51.728;5.248;2023-04-24T04:23:54;99951.48;;;8.16;88.16
78892;BME280;68368;51.728;5.248;2023-04-24T04:25:58;99955.54;;;8.18;88.33
78892;BME280;68368;51.728;5.248;2023-04-24T04:28:01;99957.48;;;8.18;88.16
78892;BME280;68368;51.728;5.248;2023-04-24T04:30:06;99959.61;;;8.18;88.20
78892;BME280;68368;51.728;5.248;2023-04-24T04:32:09;99962.06;;;8.19;88.40
78892;BME280;68368;51.728;5.248;2023-04-24T04:34:15;99963.64;;;8.19;88.20
78892;BME280;68368;51.728;5.248;2023-04-24T04:36:19;99966.64;;;8.20;88.23
78892;BME280;68368;51.728;5.248;2023-04-24T04:38:25;99966.98;;;8.21;88.16
78892;BME280;68368;51.728;5.248;2023-04-24T04:40:29;99975.27;;;8.22;88.18
78892;BME280;68368;51.728;5.248;2023-04-24T04:42:33;99975.08;;;8.22;88.13
78892;BME280;68368;51.728;5.248;2023-04-24T04:44:36;99977.73;;;8.24;88.25
78892;BME280;68368;51.728;5.248;2023-04-24T04:46:41;99983.03;;;8.24;88.29
78892;BME280;68368;51.728;5.248;2023-04-24T04:48:45;99983.92;;;8.24;88.12
78892;BME280;68368;51.728;5.248;2023-04-24T04:50:49;99986.41;;;8.23;88.26
78892;BME280;68368;51.728;5.248;2023-04-24T04:52:53;99990.16;;;8.20;88.21
78892;BME280;68368;51.728;5.248;2023-04-24T04:54:59;99990.52;;;8.19;88.37
78892;BME280;68368;51.728;5.248;2023-04-24T04:57:03;99988.41;;;8.18;88.41
78892;BME280;68368;51.728;5.248;2023-04-24T04:59:10;99992.14;;;8.18;88.60
78892;BME280;68368;51.728;5.248;2023-04-24T05:01:16;99994.06;;;8.19;88.46
78892;BME280;68368;51.728;5.248;2023-04-24T05:03:20;100001.29;;;8.20;88.70
78892;BME280;68368;51.728;5.248;2023-04-24T05:05:24;100005.87;;;8.21;88.61
78892;BME280;68368;51.728;5.248;2023-04-24T05:07:28;100004.61;;;8.23;88.82
78892;BME280;68368;51.728;5.248;2023-04-24T05:09:31;99998.06;;;8.23;89.08
78892;BME280;68368;51.728;5.248;2023-04-24T05:11:42;100004.80;;;8.22;89.15
78892;BME280;68368;51.728;5.248;2023-04-24T05:13:46;100010.46;;;8.22;89.02
78892;BME280;68368;51.728;5.248;2023-04-24T05:15:52;100014.38;;;8.20;88.85
78892;BME280;68368;51.728;5.248;2023-04-24T05:17:55;100019.19;;;8.17;88.49
78892;BME280;68368;51.728;5.248;2023-04-24T05:20:01;100022.76;;;8.15;88.34
78892;BME280;68368;51.728;5.248;2023-04-24T05:22:12;100028.77;;;8.14;88.54
78892;BME280;68368;51.728;5.248;2023-04-24T05:24:15;100031.06;;;8.13;88.46
78892;BME280;68368;51.728;5.248;2023-04-24T05:26:19;100032.66;;;8.13;88.67
78892;BME280;68368;51.728;5.248;2023-04-24T05:28:25;100037.42;;;8.15;88.65
78892;BME280;68368;51.728;5.248;2023-04-24T05:30:31;100039.34;;;8.17;88.47
78892;BME280;68368;51.728;5.248;2023-04-24T05:32:34;100044.79;;;8.19;88.84
78892;BME280;68368;51.728;5.248;2023-04-24T05:34:38;100047.77;;;8.20;88.68
78892;BME280;68368;51.728;5.248;2023-04-24T05:36:42;100050.61;;;8.21;88.50
78892;BME280;68368;51.728;5.248;2023-04-24T05:38:46;100051.98;;;8.22;88.63
78892;BME280;68368;51.728;5.248;2023-04-24T05:40:50;100056.04;;;8.24;88.37
78892;BME280;68368;51.728;5.248;2023-04-24T05:42:56;100065.92;;;8.26;88.35
78892;BME280;68368;51.728;5.248;2023-04-24T05:44:59;100065.52;;;8.30;88.53
78892;BME280;68368;51.728;5.248;2023-04-24T05:47:05;100066.00;;;8.33;88.55
78892;BME280;68368;51.728;5.248;2023-04-24T05:49:09;100067.55;;;8.36;88.51
78892;BME280;68368;51.728;5.248;2023-04-24T05:51:18;100072.68;;;8.38;88.53
78892;BME280;68368;51.728;5.248;2023-04-24T05:53:23;100073.73;;;8.39;88.53
78892;BME280;68368;51.728;5.248;2023-04-24T05:55:27;100075.33;;;8.39;88.11
78892;BME280;68368;51.728;5.248;2023-04-24T05:57:31;100079.91;;;8.38;88.46
78892;BME280;68368;51.728;5.248;2023-04-24T05:59:36;100080.10;;;8.36;88.28
78892;BME280;68368;51.728;5.248;2023-04-24T06:01:41;100088.92;;;8.37;88.35
78892;BME280;68368;51.728;5.248;2023-04-24T06:03:44;100093.72;;;8.36;88.30
78892;BME280;68368;51.728;5.248;2023-04-24T06:05:50;100104.52;;;8.36;88.06
78892;BME280;68368;51.728;5.248;2023-04-24T06:07:55;100108.42;;;8.35;88.07
78892;BME280;68368;51.728;5.248;2023-04-24T06:10:02;100115.65;;;8.36;88.26
78892;BME280;68368;51.728;5.248;2023-04-24T06:12:12;100119.53;;;8.37;88.29
78892;BME280;68368;51.728;5.248;2023-04-24T06:14:18;100123.25;;;8.39;88.45
78892;BME280;68368;51.728;5.248;2023-04-24T06:16:22;100124.81;;;8.42;88.51
78892;BME280;68368;51.728;5.248;2023-04-24T06:18:32;100132.05;;;8.44;88.50
78892;BME280;68368;51.728;5.248;2023-04-24T06:20:38;100135.75;;;8.44;88.37
78892;BME280;68368;51.728;5.248;2023-04-24T06:22:41;100137.73;;;8.43;88.26
78892;BME280;68368;51.728;5.248;2023-04-24T06:24:45;100145.33;;;8.42;88.45
78892;BME280;68368;51.728;5.248;2023-04-24T06:26:48;100144.80;;;8.42;88.36
78892;BME280;68368;51.728;5.248;2023-04-24T06:28:52;100149.96;;;8.38;88.70
78892;BME280;68368;51.728;5.248;2023-04-24T06:30:56;100156.33;;;8.36;89.05
78892;BME280;68368;51.728;5.248;2023-04-24T06:33:00;100165.73;;;8.34;89.37
78892;BME280;68368;51.728;5.248;2023-04-24T06:35:06;100169.29;;;8.32;89.28
78892;BME280;68368;51.728;5.248;2023-04-24T06:37:09;100174.95;;;8.32;89.43
78892;BME280;68368;51.728;5.248;2023-04-24T06:39:16;100187.89;;;8.30;89.53
78892;BME280;68368;51.728;5.248;2023-04-24T06:41:23;100193.73;;;8.28;89.28
78892;BME280;68368;51.728;5.248;2023-04-24T06:43:26;100203.14;;;8.26;89.27
78892;BME280;68368;51.728;5.248;2023-04-24T06:45:29;100213.05;;;8.24;89.07
78892;BME280;68368;51.728;5.248;2023-04-24T06:47:34;100212.36;;;8.22;89.08
78892;BME280;68368;51.728;5.248;2023-04-24T06:49:39;100218.58;;;8.20;89.01
78892;BME280;68368;51.728;5.248;2023-04-24T06:51:42;100235.23;;;8.18;89.42
78892;BME280;68368;51.728;5.248;2023-04-24T06:53:46;100238.40;;;8.17;89.23
78892;BME280;68368;51.728;5.248;2023-04-24T06:55:51;100248.66;;;8.16;88.82
78892;BME280;68368;51.728;5.248;2023-04-24T06:57:56;100257.72;;;8.13;87.94
78892;BME280;68368;51.728;5.248;2023-04-24T07:00:01;100260.94;;;8.09;87.62
78892;BME280;68368;51.728;5.248;2023-04-24T07:02:04;100267.35;;;8.04;87.73
78892;BME280;68368;51.728;5.248;2023-04-24T07:04:08;100273.74;;;8.01;88.13
78892;BME280;68368;51.728;5.248;2023-04-24T07:06:13;100283.84;;;7.98;87.99
78892;BME280;68368;51.728;5.248;2023-04-24T07:08:16;100287.92;;;7.95;88.24
78892;BME280;68368;51.728;5.248;2023-04-24T07:10:20;100287.05;;;7.93;88.22
78892;BME280;68368;51.728;5.248;2023-04-24T07:12:25;100296.79;;;7.91;88.43
78892;BME280;68368;51.728;5.248;2023-04-24T07:14:29;100302.64;;;7.89;88.69
78892;BME280;68368;51.728;5.248;2023-04-24T07:16:34;100307.23;;;7.89;88.88
78892;BME280;68368;51.728;5.248;2023-04-24T07:18:38;100313.96;;;7.88;88.98
78892;BME280;68368;51.728;5.248;2023-04-24T07:20:43;100319.11;;;7.86;89.47
78892;BME280;68368;51.728;5.248;2023-04-24T07:22:46;100321.92;;;7.87;89.47
78892;BME280;68368;51.728;5.248;2023-04-24T07:24:50;100325.26;;;7.89;89.23
78892;BME280;68368;51.728;5.248;2023-04-24T07:26:58;100331.25;;;7.92;89.29
78892;BME280;68368;51.728;5.248;2023-04-24T07:29:03;100346.61;;;7.93;89.12
78892;BME280;68368;51.728;5.248;2023-04-24T07:31:07;100345.02;;;7.93;89.13
78892;BME280;68368;51.728;5.248;2023-04-24T07:33:11;100351.73;;;7.93;89.27
78892;BME280;68368;51.728;5.248;2023-04-24T07:35:16;100355.97;;;7.95;89.05
78892;BME280;68368;51.728;5.248;2023-04-24T07:37:24;100361.79;;;7.97;88.33
78892;BME280;68368;51.728;5.248;2023-04-24T07:39:29;100368.33;;;7.98;88.38
78892;BME280;68368;51.728;5.248;2023-04-24T07:41:33;100371.67;;;7.99;88.06
78892;BME280;68368;51.728;5.248;2023-04-24T07:43:36;100382.09;;;8.02;88.27
78892;BME280;68368;51.728;5.248;2023-04-24T07:45:40;100382.42;;;8.05;87.97
78892;BME280;68368;51.728;5.248;2023-04-24T07:47:44;100388.60;;;8.06;87.68
78892;BME280;68368;51.728;5.248;2023-04-24T07:49:48;100396.36;;;8.07;87.72
78892;BME280;68368;51.728;5.248;2023-04-24T07:51:52;100396.88;;;8.09;87.76
78892;BME280;68368;51.728;5.248;2023-04-24T07:53:55;100402.86;;;8.12;87.80
78892;BME280;68368;51.728;5.248;2023-04-24T07:55:59;100401.45;;;8.12;87.24
78892;BME280;68368;51.728;5.248;2023-04-24T07:58:04;100403.75;;;8.12;86.83
78892;BME280;68368;51.728;5.248;2023-04-24T08:00:10;100407.45;;;8.11;86.65
78892;BME280;68368;51.728;5.248;2023-04-24T08:02:14;100412.05;;;8.13;86.45
78892;BME280;68368;51.728;5.248;2023-04-24T08:04:18;100416.64;;;8.15;86.77
78892;BME280;68368;51.728;5.248;2023-04-24T08:06:22;100425.30;;;8.14;86.43
78892;BME280;68368;51.728;5.248;2023-04-24T08:08:28;100427.42;;;8.14;85.97
78892;BME280;68368;51.728;5.248;2023-04-24T08:10:32;100435.75;;;8.11;86.24
78892;BME280;68368;51.728;5.248;2023-04-24T08:12:36;100444.24;;;8.10;85.64
78892;BME280;68368;51.728;5.248;2023-04-24T08:14:40;100450.42;;;8.11;85.44
78892;BME280;68368;51.728;5.248;2023-04-24T08:16:43;100448.67;;;8.09;84.74
78892;BME280;68368;51.728;5.248;2023-04-24T08:18:47;100455.94;;;8.06;85.08
78892;BME280;68368;51.728;5.248;2023-04-24T08:20:50;100463.55;;;8.04;85.23
78892;BME280;68368;51.728;5.248;2023-04-24T08:22:54;100469.21;;;8.03;85.27
78892;BME280;68368;51.728;5.248;2023-04-24T08:24:59;100470.46;;;8.03;85.50
78892;BME280;68368;51.728;5.248;2023-04-24T08:27:02;100479.48;;;8.03;85.35
78892;BME280;68368;51.728;5.248;2023-04-24T08:29:06;100481.23;;;8.06;85.54
78892;BME280;68368;51.728;5.248;2023-04-24T08:31:09;100487.38;;;8.11;84.98
78892;BME280;68368;51.728;5.248;2023-04-24T08:33:12;100490.34;;;8.18;85.42
78892;BME280;68368;51.728;5.248;2023-04-24T08:35:15;100492.41;;;8.28;84.65
78892;BME280;68368;51.728;5.248;2023-04-24T08:37:20;100495.35;;;8.38;84.07
78892;BME280;68368;51.728;5.248;2023-04-24T08:39:23;100498.84;;;8.49;84.15
78892;BME280;68368;51.728;5.248;2023-04-24T08:41:28;100499.48;;;8.60;83.36
78892;BME280;68368;51.728;5.248;2023-04-24T08:43:33;100500.80;;;8.72;83.09
78892;BME280;68368;51.728;5.248;2023-04-24T08:45:37;100508.66;;;8.84;82.48
78892;BME280;68368;51.728;5.248;2023-04-24T08:47:41;100515.39;;;8.86;81.89
78892;BME280;68368;51.728;5.248;2023-04-24T08:49:46;100520.38;;;8.80;82.22
78892;BME280;68368;51.728;5.248;2023-04-24T08:51:52;100519.33;;;8.79;81.87
78892;BME280;68368;51.728;5.248;2023-04-24T08:53:55;100521.45;;;8.79;80.62
78892;BME280;68368;51.728;5.248;2023-04-24T08:55:59;100529.77;;;8.79;80.34
78892;BME280;68368;51.728;5.248;2023-04-24T08:58:04;100529.94;;;8.80;80.56
78892;BME280;68368;51.728;5.248;2023-04-24T09:00:09;100537.16;;;8.85;80.39
78892;BME280;68368;51.728;5.248;2023-04-24T09:02:13;100541.70;;;8.91;80.16
78892;BME280;68368;51.728;5.248;2023-04-24T09:04:17;100544.88;;;8.94;79.27
78892;BME280;68368;51.728;5.248;2023-04-24T09:06:23;100551.75;;;8.98;78.32
78892;BME280;68368;51.728;5.248;2023-04-24T09:08:27;100553.27;;;9.07;78.27
78892;BME280;68368;51.728;5.248;2023-04-24T09:10:31;100556.69;;;9.20;76.46
78892;BME280;68368;51.728;5.248;2023-04-24T09:12:35;100557.81;;;9.32;76.07
78892;BME280;68368;51.728;5.248;2023-04-24T09:14:39;100557.60;;;9.35;75.24
78892;BME280;68368;51.728;5.248;2023-04-24T09:16:42;100560.69;;;9.27;73.57
78892;BME280;68368;51.728;5.248;2023-04-24T09:18:46;100560.97;;;9.17;73.60
78892;BME280;68368;51.728;5.248;2023-04-24T09:21:07;100562.41;;;9.13;74.63
78892;BME280;68368;51.728;5.248;2023-04-24T09:23:11;100565.97;;;9.11;74.48
78892;BME280;68368;51.728;5.248;2023-04-24T09:25:20;100571.20;;;9.20;73.98
78892;BME280;68368;51.728;5.248;2023-04-24T09:27:24;100576.52;;;9.40;74.41
78892;BME280;68368;51.728;5.248;2023-04-24T09:29:28;100580.25;;;9.56;74.23
78892;BME280;68368;51.728;5.248;2023-04-24T09:31:31;100587.11;;;9.62;73.47
78892;BME280;68368;51.728;5.248;2023-04-24T09:33:35;100593.15;;;9.61;73.37
78892;BME280;68368;51.728;5.248;2023-04-24T09:35:42;100596.94;;;9.53;72.34
78892;BME280;68368;51.728;5.248;2023-04-24T09:37:46;100601.48;;;9.41;72.43
78892;BME280;68368;51.728;5.248;2023-04-24T09:40:09;100599.11;;;9.29;73.05
78892;BME280;68368;51.728;5.248;2023-04-24T09:42:12;100610.55;;;9.16;74.65
78892;BME280;68368;51.728;5.248;2023-04-24T09:44:17;100613.41;;;9.13;75.51
78892;BME280;68368;51.728;5.248;2023-04-24T09:46:20;100616.19;;;9.20;75.76
78892;BME280;68368;51.728;5.248;2023-04-24T09:48:32;100616.15;;;9.26;76.11
78892;BME280;68368;51.728;5.248;2023-04-24T09:50:36;100620.53;;;9.30;75.52
78892;BME280;68368;51.728;5.248;2023-04-24T09:52:43;100615.07;;;9.26;73.70
78892;BME280;68368;51.728;5.248;2023-04-24T09:54:53;100624.35;;;9.18;72.29
78892;BME280;68368;51.728;5.248;2023-04-24T09:56:57;100621.54;;;9.18;74.32
78892;BME280;68368;51.728;5.248;2023-04-24T09:59:06;100628.48;;;9.32;74.47
78892;BME280;68368;51.728;5.248;2023-04-24T10:01:10;100632.73;;;9.55;72.18
78892;BME280;68368;51.728;5.248;2023-04-24T10:03:13;100640.67;;;9.75;72.33
78892;BME280;68368;51.728;5.248;2023-04-24T10:05:17;100637.55;;;9.87;71.72
78892;BME280;68368;51.728;5.248;2023-04-24T10:07:21;100645.16;;;9.87;68.89
78892;BME280;68368;51.728;5.248;2023-04-24T10:09:26;100646.66;;;9.80;68.69
78892;BME280;68368;51.728;5.248;2023-04-24T10:11:30;100650.45;;;9.71;68.90
78892;BME280;68368;51.728;5.248;2023-04-24T10:13:35;100655.83;;;9.67;70.72
78892;BME280;68368;51.728;5.248;2023-04-24T10:15:40;100658.44;;;9.52;68.90
78892;BME280;68368;51.728;5.248;2023-04-24T10:17:44;100667.09;;;9.34;69.92
78892;BME280;68368;51.728;5.248;2023-04-24T10:19:48;100665.12;;;9.14;70.88
78892;BME280;68368;51.728;5.248;2023-04-24T10:21:52;100676.55;;;9.01;72.23
78892;BME280;68368;51.728;5.248;2023-04-24T10:23:55;100675.13;;;9.00;72.62
78892;BME280;68368;51.728;5.248;2023-04-24T10:25:59;100675.40;;;9.14;72.01
78892;BME280;68368;51.728;5.248;2023-04-24T10:28:04;100678.23;;;9.37;72.09
78892;BME280;68368;51.728;5.248;2023-04-24T10:30:11;100679.73;;;9.70;71.33
78892;BME280;68368;51.728;5.248;2023-04-24T10:32:15;100678.84;;;10.05;69.01
78892;BME280;68368;51.728;5.248;2023-04-24T10:34:19;100678.38;;;10.34;67.89
78892;BME280;68368;51.728;5.248;2023-04-24T10:36:25;100676.61;;;10.63;67.89
78892;BME280;68368;51.728;5.248;2023-04-24T10:38:32;100673.85;;;10.96;67.75
78892;BME280;68368;51.728;5.248;2023-04-24T10:40:36;100669.38;;;11.22;65.83
78892;BME280;68368;51.728;5.248;2023-04-24T10:42:42;100675.27;;;11.43;65.04
78892;BME280;68368;51.728;5.248;2023-04-24T10:44:49;100680.45;;;11.63;66.42
78892;BME280;68368;51.728;5.248;2023-04-24T10:46:56;100674.29;;;11.80;65.64
78892;BME280;68368;51.728;5.248;2023-04-24T10:48:59;100681.85;;;11.96;64.70
78892;BME280;68368;51.728;5.248;2023-04-24T10:51:06;100682.34;;;12.09;64.96
78892;BME280;68368;51.728;5.248;2023-04-24T10:53:18;100689.71;;;12.23;64.32
78892;BME280;68368;51.728;5.248;2023-04-24T10:55:40;100687.59;;;12.40;65.21
78892;BME280;68368;51.728;5.248;2023-04-24T10:58:03;100685.89;;;12.62;63.73
78892;BME280;68368;51.728;5.248;2023-04-24T11:00:18;100688.21;;;12.79;61.71
78892;BME280;68368;51.728;5.248;2023-04-24T11:02:37;100695.20;;;12.93;62.82
78892;BME280;68368;51.728;5.248;2023-04-24T11:04:40;100700.05;;;12.92;61.73